sensor_id;sensor_type;location;lat;lon;timestamp;temperature;humidity
34837;DHT22;21053;50.848;4.652;2023-04-06T00:01:39;4.20;99.90
34837;DHT22;21053;50.848;4.652;2023-04-06T00:04:08;4.20;99.90
34837;DHT22;21053;50.848;4.652;2023-04-06T00:06:34;4.30;99.90
34837;DHT22;21053;50.848;4.652;2023-04-06T00:09:03;4.20;99.90
34837;DHT22;21053;50.848;4.652;2023-04-06T00:11:29;4.20;99.90
34837;DHT22;21053;50.848;4.652;2023-04-06T00:13:56;4.20;99.90
34837;DHT22;21053;50.848;4.652;2023-04-06T00:16:25;4.20;99.90
34837;DHT22;21053;50.848;4.652;2023-04-06T00:18:51;4.10;99.90
34837;DHT22;21053;50.848;4.652;2023-04-06T00:21:17;4.10;99.90
34837;DHT22;21053;50.848;4.652;2023-04-06T00:23:44;4.10;99.90
34837;DHT22;21053;50.848;4.652;2023-04-06T00:26:12;4.10;99.90
34837;DHT22;21053;50.848;4.652;2023-04-06T00:28:40;4.10;99.90
34837;DHT22;21053;50.848;4.652;2023-04-06T00:31:06;4.00;99.90
34837;DHT22;21053;50.848;4.652;2023-04-06T00:33:33;4.00;99.90
34837;DHT22;21053;50.848;4.652;2023-04-06T00:36:01;4.10;99.90
34837;DHT22;21053;50.848;4.652;2023-04-06T00:38:26;4.10;99.90
34837;DHT22;21053;50.848;4.652;2023-04-06T00:40:55;4.20;99.90
34837;DHT22;21053;50.848;4.652;2023-04-06T00:43:24;4.20;99.90
34837;DHT22;21053;50.848;4.652;2023-04-06T00:45:53;4.20;99.90
34837;DHT22;21053;50.848;4.652;2023-04-06T00:48:21;4.20;99.90
34837;DHT22;21053;50.848;4.652;2023-04-06T00:50:46;4.30;99.90
34837;DHT22;21053;50.848;4.652;2023-04-06T00:53:15;4.30;99.90
34837;DHT22;21053;50.848;4.652;2023-04-06T00:55:42;4.40;99.90
34837;DHT22;21053;50.848;4.652;2023-04-06T00:58:08;4.30;99.90
34837;DHT22;21053;50.848;4.652;2023-04-06T01:00:37;4.40;99.90
34837;DHT22;21053;50.848;4.652;2023-04-06T01:03:05;4.50;99.90
34837;DHT22;21053;50.848;4.652;2023-04-06T01:05:35;4.50;99.90
34837;DHT22;21053;50.848;4.652;2023-04-06T01:08:07;4.50;99.90
34837;DHT22;21053;50.848;4.652;2023-04-06T01:10:35;4.50;99.90
34837;DHT22;21053;50.848;4.652;2023-04-06T01:13:02;4.60;99.90
34837;DHT22;21053;50.848;4.652;2023-04-06T01:15:31;4.50;99.90
34837;DHT22;21053;50.848;4.652;2023-04-06T01:17:58;4.40;99.90
34837;DHT22;21053;50.848;4.652;2023-04-06T01:20:26;4.40;99.90
34837;DHT22;21053;50.848;4.652;2023-04-06T01:22:55;4.50;99.90
34837;DHT22;21053;50.848;4.652;2023-04-06T01:25:23;4.50;99.90
34837;DHT22;21053;50.848;4.652;2023-04-06T01:27:50;4.60;99.90
34837;DHT22;21053;50.848;4.652;2023-04-06T01:30:19;4.60;99.90
34837;DHT22;21053;50.848;4.652;2023-04-06T01:32:47;4.60;99.90
34837;DHT22;21053;50.848;4.652;2023-04-06T01:35:13;4.70;99.90
34837;DHT22;21053;50.848;4.652;2023-04-06T01:37:41;4.70;99.90
34837;DHT22;21053;50.848;4.652;2023-04-06T01:40:08;4.70;99.90
34837;DHT22;21053;50.848;4.652;2023-04-06T01:42:34;4.80;99.90
34837;DHT22;21053;50.848;4.652;2023-04-06T01:45:01;4.70;99.90
34837;DHT22;21053;50.848;4.652;2023-04-06T01:47:28;4.70;99.90
34837;DHT22;21053;50.848;4.652;2023-04-06T01:49:55;4.70;99.90
34837;DHT22;21053;50.848;4.652;2023-04-06T01:52:22;4.70;99.90
34837;DHT22;21053;50.848;4.652;2023-04-06T01:54:50;4.70;99.90
34837;DHT22;21053;50.848;4.652;2023-04-06T01:57:17;4.80;99.90
34837;DHT22;21053;50.848;4.652;2023-04-06T01:59:44;4.80;99.90
34837;DHT22;21053;50.848;4.652;2023-04-06T02:02:11;4.80;99.90
34837;DHT22;21053;50.848;4.652;2023-04-06T02:04:41;4.80;99.90
34837;DHT22;21053;50.848;4.652;2023-04-06T02:09:37;4.90;99.90
34837;DHT22;21053;50.848;4.652;2023-04-06T02:12:03;4.90;99.90
34837;DHT22;21053;50.848;4.652;2023-04-06T02:14:32;4.90;99.90
34837;DHT22;21053;50.848;4.652;2023-04-06T02:17:04;4.90;99.90
34837;DHT22;21053;50.848;4.652;2023-04-06T02:19:30;4.90;99.90
34837;DHT22;21053;50.848;4.652;2023-04-06T02:21:57;4.90;99.90
34837;DHT22;21053;50.848;4.652;2023-04-06T02:24:23;4.90;99.90
34837;DHT22;21053;50.848;4.652;2023-04-06T02:26:50;4.80;99.90
34837;DHT22;21053;50.848;4.652;2023-04-06T02:29:17;4.80;99.90
34837;DHT22;21053;50.848;4.652;2023-04-06T02:31:43;4.80;99.90
34837;DHT22;21053;50.848;4.652;2023-04-06T02:34:11;4.80;99.90
34837;DHT22;21053;50.848;4.652;2023-04-06T02:36:46;4.90;99.90
34837;DHT22;21053;50.848;4.652;2023-04-06T02:39:14;4.80;99.90
34837;DHT22;21053;50.848;4.652;2023-04-06T02:41:41;4.80;99.90
34837;DHT22;21053;50.848;4.652;2023-04-06T02:44:08;4.80;99.90
34837;DHT22;21053;50.848;4.652;2023-04-06T02:46:34;4.70;99.90
34837;DHT22;21053;50.848;4.652;2023-04-06T02:49:01;4.70;99.90
34837;DHT22;21053;50.848;4.652;2023-04-06T02:51:27;4.70;99.90
34837;DHT22;21053;50.848;4.652;2023-04-06T02:53:53;4.60;99.90
34837;DHT22;21053;50.848;4.652;2023-04-06T02:56:19;4.50;99.90
34837;DHT22;21053;50.848;4.652;2023-04-06T02:58:49;4.40;99.90
34837;DHT22;21053;50.848;4.652;2023-04-06T03:01:18;4.40;99.90
34837;DHT22;21053;50.848;4.652;2023-04-06T03:03:45;4.40;99.90
34837;DHT22;21053;50.848;4.652;2023-04-06T03:06:12;4.40;99.90
34837;DHT22;21053;50.848;4.652;2023-04-06T03:08:40;4.50;99.90
34837;DHT22;21053;50.848;4.652;2023-04-06T03:11:06;4.60;99.90
34837;DHT22;21053;50.848;4.652;2023-04-06T03:13:36;4.60;99.90
34837;DHT22;21053;50.848;4.652;2023-04-06T03:16:04;4.60;99.90
34837;DHT22;21053;50.848;4.652;2023-04-06T03:18:32;4.40;99.90
34837;DHT22;21053;50.848;4.652;2023-04-06T03:21:01;4.20;99.90
34837;DHT22;21053;50.848;4.652;2023-04-06T03:23:29;4.20;99.90
34837;DHT22;21053;50.848;4.652;2023-04-06T03:25:58;4.30;99.90
34837;DHT22;21053;50.848;4.652;2023-04-06T03:28:25;4.40;99.90
34837;DHT22;21053;50.848;4.652;2023-04-06T03:30:53;4.50;99.90
34837;DHT22;21053;50.848;4.652;2023-04-06T03:33:22;4.50;99.90
34837;DHT22;21053;50.848;4.652;2023-04-06T03:35:49;4.50;99.90
34837;DHT22;21053;50.848;4.652;2023-04-06T03:38:15;4.60;99.90
34837;DHT22;21053;50.848;4.652;2023-04-06T03:40:42;4.60;99.90
34837;DHT22;21053;50.848;4.652;2023-04-06T03:43:09;4.60;99.90
34837;DHT22;21053;50.848;4.652;2023-04-06T03:45:38;4.50;99.90
34837;DHT22;21053;50.848;4.652;2023-04-06T03:48:05;4.50;99.90
34837;DHT22;21053;50.848;4.652;2023-04-06T03:50:30;4.50;99.90
34837;DHT22;21053;50.848;4.652;2023-04-06T03:52:59;4.50;99.90
34837;DHT22;21053;50.848;4.652;2023-04-06T03:55:29;4.50;99.90
34837;DHT22;21053;50.848;4.652;2023-04-06T03:57:58;4.50;99.90
34837;DHT22;21053;50.848;4.652;2023-04-06T04:00:24;4.50;99.90
34837;DHT22;21053;50.848;4.652;2023-04-06T04:02:50;4.50;99.90
34837;DHT22;21053;50.848;4.652;2023-04-06T04:05:16;4.50;99.90
34837;DHT22;21053;50.848;4.652;2023-04-06T04:07:42;4.50;99.90
34837;DHT22;21053;50.848;4.652;2023-04-06T04:10:13;4.60;99.90
34837;DHT22;21053;50.848;4.652;2023-04-06T04:12:40;4.50;99.90
34837;DHT22;21053;50.848;4.652;2023-04-06T04:15:09;4.60;99.90
34837;DHT22;21053;50.848;4.652;2023-04-06T04:17:38;4.50;99.90
34837;DHT22;21053;50.848;4.652;2023-04-06T04:20:07;4.50;99.90
34837;DHT22;21053;50.848;4.652;2023-04-06T04:22:36;4.50;99.90
34837;DHT22;21053;50.848;4.652;2023-04-06T04:25:05;4.50;99.90
34837;DHT22;21053;50.848;4.652;2023-04-06T04:27:31;4.50;99.90
34837;DHT22;21053;50.848;4.652;2023-04-06T04:29:56;4.50;99.90
34837;DHT22;21053;50.848;4.652;2023-04-06T04:32:23;4.60;99.90
34837;DHT22;21053;50.848;4.652;2023-04-06T04:34:55;4.60;99.90
34837;DHT22;21053;50.848;4.652;2023-04-06T04:37:24;4.60;99.90
34837;DHT22;21053;50.848;4.652;2023-04-06T04:39:50;4.60;99.90
34837;DHT22;21053;50.848;4.652;2023-04-06T04:42:16;4.50;99.90
34837;DHT22;21053;50.848;4.652;2023-04-06T04:44:43;4.60;99.90
34837;DHT22;21053;50.848;4.652;2023-04-06T04:47:11;4.60;99.90
34837;DHT22;21053;50.848;4.652;2023-04-06T04:49:38;4.60;99.90
34837;DHT22;21053;50.848;4.652;2023-04-06T04:52:04;4.60;99.90
34837;DHT22;21053;50.848;4.652;2023-04-06T04:54:30;4.60;99.90
34837;DHT22;21053;50.848;4.652;2023-04-06T04:56:55;4.70;99.90
34837;DHT22;21053;50.848;4.652;2023-04-06T04:59:21;4.70;99.90
34837;DHT22;21053;50.848;4.652;2023-04-06T05:01:47;4.70;99.90
34837;DHT22;21053;50.848;4.652;2023-04-06T05:04:13;4.70;99.90
34837;DHT22;21053;50.848;4.652;2023-04-06T05:06:40;4.80;99.90
34837;DHT22;21053;50.848;4.652;2023-04-06T05:09:07;4.70;99.90
34837;DHT22;21053;50.848;4.652;2023-04-06T05:11:38;4.80;99.90
34837;DHT22;21053;50.848;4.652;2023-04-06T05:17:35;5.00;99.90
34837;DHT22;21053;50.848;4.652;2023-04-06T05:20:02;5.10;99.90
34837;DHT22;21053;50.848;4.652;2023-04-06T05:22:31;5.10;99.90
34837;DHT22;21053;50.848;4.652;2023-04-06T05:24:56;5.10;99.90
34837;DHT22;21053;50.848;4.652;2023-04-06T05:27:25;5.10;99.90
34837;DHT22;21053;50.848;4.652;2023-04-06T05:29:52;5.10;99.90
34837;DHT22;21053;50.848;4.652;2023-04-06T05:32:21;5.20;99.90
34837;DHT22;21053;50.848;4.652;2023-04-06T05:34:51;5.20;99.90
34837;DHT22;21053;50.848;4.652;2023-04-06T05:37:16;5.20;99.90
34837;DHT22;21053;50.848;4.652;2023-04-06T05:39:44;5.30;99.90
34837;DHT22;21053;50.848;4.652;2023-04-06T05:42:11;5.40;99.90
34837;DHT22;21053;50.848;4.652;2023-04-06T05:44:39;5.40;99.90
34837;DHT22;21053;50.848;4.652;2023-04-06T05:47:06;5.40;99.90
34837;DHT22;21053;50.848;4.652;2023-04-06T05:49:35;5.40;99.90
34837;DHT22;21053;50.848;4.652;2023-04-06T05:52:01;5.50;99.90
34837;DHT22;21053;50.848;4.652;2023-04-06T05:54:29;5.50;99.90
34837;DHT22;21053;50.848;4.652;2023-04-06T05:56:55;5.50;99.90
34837;DHT22;21053;50.848;4.652;2023-04-06T05:59:21;5.40;99.90
34837;DHT22;21053;50.848;4.652;2023-04-06T06:01:50;5.50;99.90
34837;DHT22;21053;50.848;4.652;2023-04-06T06:04:18;5.60;99.90
34837;DHT22;21053;50.848;4.652;2023-04-06T06:06:45;5.60;99.90
34837;DHT22;21053;50.848;4.652;2023-04-06T06:09:13;5.80;99.90
34837;DHT22;21053;50.848;4.652;2023-04-06T06:11:42;5.90;99.90
34837;DHT22;21053;50.848;4.652;2023-04-06T06:14:09;6.10;99.90
34837;DHT22;21053;50.848;4.652;2023-04-06T06:16:34;6.30;99.90
34837;DHT22;21053;50.848;4.652;2023-04-06T06:19:00;6.40;99.90
34837;DHT22;21053;50.848;4.652;2023-04-06T06:23:33;6.50;99.90
34837;DHT22;21053;50.848;4.652;2023-04-06T06:26:02;6.60;99.90
34837;DHT22;21053;50.848;4.652;2023-04-06T06:28:28;6.70;99.90
34837;DHT22;21053;50.848;4.652;2023-04-06T06:30:55;6.80;99.90
34837;DHT22;21053;50.848;4.652;2023-04-06T06:33:22;6.90;99.90
34837;DHT22;21053;50.848;4.652;2023-04-06T06:35:51;7.10;99.90
34837;DHT22;21053;50.848;4.652;2023-04-06T06:38:19;7.20;99.90
34837;DHT22;21053;50.848;4.652;2023-04-06T06:40:46;7.30;99.90
34837;DHT22;21053;50.848;4.652;2023-04-06T06:43:15;7.30;99.90
34837;DHT22;21053;50.848;4.652;2023-04-06T06:45:42;7.40;99.90
34837;DHT22;21053;50.848;4.652;2023-04-06T06:48:09;7.50;99.90
34837;DHT22;21053;50.848;4.652;2023-04-06T06:50:38;7.50;99.90
34837;DHT22;21053;50.848;4.652;2023-04-06T06:53:05;7.60;99.90
34837;DHT22;21053;50.848;4.652;2023-04-06T06:55:32;7.60;99.90
34837;DHT22;21053;50.848;4.652;2023-04-06T06:57:58;7.60;99.90
34837;DHT22;21053;50.848;4.652;2023-04-06T07:00:24;7.70;99.90
34837;DHT22;21053;50.848;4.652;2023-04-06T07:02:51;7.70;99.90
34837;DHT22;21053;50.848;4.652;2023-04-06T07:05:17;7.80;99.90
34837;DHT22;21053;50.848;4.652;2023-04-06T07:07:44;8.00;99.90
34837;DHT22;21053;50.848;4.652;2023-04-06T07:10:11;8.10;99.90
34837;DHT22;21053;50.848;4.652;2023-04-06T07:12:38;8.20;99.90
34837;DHT22;21053;50.848;4.652;2023-04-06T07:15:07;8.30;99.90
34837;DHT22;21053;50.848;4.652;2023-04-06T07:17:34;8.40;99.90
34837;DHT22;21053;50.848;4.652;2023-04-06T07:20:03;8.40;99.90
34837;DHT22;21053;50.848;4.652;2023-04-06T07:22:31;8.40;99.90
34837;DHT22;21053;50.848;4.652;2023-04-06T07:24:56;8.40;99.90
34837;DHT22;21053;50.848;4.652;2023-04-06T07:27:24;8.30;99.90
34837;DHT22;21053;50.848;4.652;2023-04-06T07:29:50;8.40;99.90
34837;DHT22;21053;50.848;4.652;2023-04-06T07:32:18;8.40;99.90
34837;DHT22;21053;50.848;4.652;2023-04-06T07:34:46;8.40;99.90
34837;DHT22;21053;50.848;4.652;2023-04-06T07:37:14;8.50;99.90
34837;DHT22;21053;50.848;4.652;2023-04-06T07:39:43;8.60;99.90
34837;DHT22;21053;50.848;4.652;2023-04-06T07:42:11;8.60;99.90
34837;DHT22;21053;50.848;4.652;2023-04-06T07:47:07;8.80;99.90
34837;DHT22;21053;50.848;4.652;2023-04-06T07:49:35;8.90;99.90
34837;DHT22;21053;50.848;4.652;2023-04-06T07:52:01;8.90;99.90
34837;DHT22;21053;50.848;4.652;2023-04-06T07:54:31;9.00;99.90
34837;DHT22;21053;50.848;4.652;2023-04-06T07:56:57;9.00;99.90
34837;DHT22;21053;50.848;4.652;2023-04-06T07:59:23;9.10;99.90
34837;DHT22;21053;50.848;4.652;2023-04-06T08:01:51;9.30;99.90
34837;DHT22;21053;50.848;4.652;2023-04-06T08:04:20;9.50;99.90
34837;DHT22;21053;50.848;4.652;2023-04-06T08:06:45;9.50;99.90
34837;DHT22;21053;50.848;4.652;2023-04-06T08:09:11;9.60;99.90
34837;DHT22;21053;50.848;4.652;2023-04-06T08:11:42;9.60;99.90
34837;DHT22;21053;50.848;4.652;2023-04-06T08:14:12;9.70;99.90
34837;DHT22;21053;50.848;4.652;2023-04-06T08:16:41;9.70;99.90
34837;DHT22;21053;50.848;4.652;2023-04-06T08:19:10;9.80;99.90
34837;DHT22;21053;50.848;4.652;2023-04-06T08:21:36;9.80;99.90
34837;DHT22;21053;50.848;4.652;2023-04-06T08:24:02;9.90;99.90
34837;DHT22;21053;50.848;4.652;2023-04-06T08:26:31;9.90;99.90
34837;DHT22;21053;50.848;4.652;2023-04-06T08:28:58;9.80;99.90
34837;DHT22;21053;50.848;4.652;2023-04-06T08:31:26;9.90;99.90
34837;DHT22;21053;50.848;4.652;2023-04-06T08:33:53;9.90;99.90
34837;DHT22;21053;50.848;4.652;2023-04-06T08:36:22;10.00;99.90
34837;DHT22;21053;50.848;4.652;2023-04-06T08:38:51;9.90;99.90
34837;DHT22;21053;50.848;4.652;2023-04-06T08:41:18;9.80;99.90
34837;DHT22;21053;50.848;4.652;2023-04-06T08:43:48;9.90;99.90
34837;DHT22;21053;50.848;4.652;2023-04-06T08:46:17;10.00;99.90
34837;DHT22;21053;50.848;4.652;2023-04-06T08:48:47;10.20;99.90
34837;DHT22;21053;50.848;4.652;2023-04-06T08:51:17;10.30;99.90
34837;DHT22;21053;50.848;4.652;2023-04-06T08:53:46;10.40;99.90
34837;DHT22;21053;50.848;4.652;2023-04-06T08:56:17;10.50;99.90
34837;DHT22;21053;50.848;4.652;2023-04-06T08:58:44;10.50;99.90
34837;DHT22;21053;50.848;4.652;2023-04-06T09:01:13;10.60;99.90
34837;DHT22;21053;50.848;4.652;2023-04-06T09:03:42;10.60;99.90
34837;DHT22;21053;50.848;4.652;2023-04-06T09:06:11;10.70;99.90
34837;DHT22;21053;50.848;4.652;2023-04-06T09:08:39;10.70;99.90
34837;DHT22;21053;50.848;4.652;2023-04-06T09:11:09;10.70;99.90
34837;DHT22;21053;50.848;4.652;2023-04-06T09:13:48;10.50;99.90
34837;DHT22;21053;50.848;4.652;2023-04-06T09:16:17;10.60;99.90
34837;DHT22;21053;50.848;4.652;2023-04-06T09:18:45;10.70;99.90
34837;DHT22;21053;50.848;4.652;2023-04-06T09:21:17;10.60;99.90
34837;DHT22;21053;50.848;4.652;2023-04-06T09:23:46;10.70;99.90
34837;DHT22;21053;50.848;4.652;2023-04-06T09:26:15;10.80;99.90
34837;DHT22;21053;50.848;4.652;2023-04-06T09:28:50;11.00;99.90
34837;DHT22;21053;50.848;4.652;2023-04-06T09:31:29;11.00;99.90
34837;DHT22;21053;50.848;4.652;2023-04-06T09:33:59;11.30;99.90
34837;DHT22;21053;50.848;4.652;2023-04-06T09:36:34;11.50;99.90
34837;DHT22;21053;50.848;4.652;2023-04-06T09:39:02;11.50;99.90
34837;DHT22;21053;50.848;4.652;2023-04-06T09:41:33;11.40;99.90
34837;DHT22;21053;50.848;4.652;2023-04-06T09:44:25;11.30;99.90
34837;DHT22;21053;50.848;4.652;2023-04-06T09:46:53;11.30;99.90
34837;DHT22;21053;50.848;4.652;2023-04-06T09:49:22;11.20;99.90
34837;DHT22;21053;50.848;4.652;2023-04-06T09:51:56;11.10;99.90
34837;DHT22;21053;50.848;4.652;2023-04-06T09:54:26;11.10;99.90
34837;DHT22;21053;50.848;4.652;2023-04-06T09:57:22;11.20;99.90
34837;DHT22;21053;50.848;4.652;2023-04-06T10:05:00;11.40;99.90
34837;DHT22;21053;50.848;4.652;2023-04-06T10:07:30;11.10;99.90
34837;DHT22;21053;50.848;4.652;2023-04-06T10:09:57;11.10;99.90
34837;DHT22;21053;50.848;4.652;2023-04-06T10:12:27;10.90;99.90
34837;DHT22;21053;50.848;4.652;2023-04-06T10:14:56;10.80;99.90
34837;DHT22;21053;50.848;4.652;2023-04-06T10:17:22;10.90;99.90
34837;DHT22;21053;50.848;4.652;2023-04-06T10:19:58;10.90;99.90
34837;DHT22;21053;50.848;4.652;2023-04-06T10:22:49;10.90;99.90
34837;DHT22;21053;50.848;4.652;2023-04-06T10:25:33;10.80;99.90
34837;DHT22;21053;50.848;4.652;2023-04-06T10:28:08;10.80;99.90
34837;DHT22;21053;50.848;4.652;2023-04-06T10:30:43;10.80;99.90
34837;DHT22;21053;50.848;4.652;2023-04-06T10:33:20;10.90;99.90
34837;DHT22;21053;50.848;4.652;2023-04-06T10:35:48;10.90;99.90
34837;DHT22;21053;50.848;4.652;2023-04-06T10:38:16;10.90;99.90
34837;DHT22;21053;50.848;4.652;2023-04-06T10:40:49;11.00;99.90
34837;DHT22;21053;50.848;4.652;2023-04-06T10:43:19;10.90;99.90
34837;DHT22;21053;50.848;4.652;2023-04-06T10:45:55;10.80;99.90
34837;DHT22;21053;50.848;4.652;2023-04-06T10:48:24;10.70;99.90
34837;DHT22;21053;50.848;4.652;2023-04-06T10:50:54;10.70;99.90
34837;DHT22;21053;50.848;4.652;2023-04-06T10:53:27;10.80;99.90
34837;DHT22;21053;50.848;4.652;2023-04-06T10:55:57;10.90;99.90
34837;DHT22;21053;50.848;4.652;2023-04-06T10:58:28;10.70;99.90
34837;DHT22;21053;50.848;4.652;2023-04-06T11:00:58;10.70;99.90
34837;DHT22;21053;50.848;4.652;2023-04-06T11:03:28;10.80;99.90
34837;DHT22;21053;50.848;4.652;2023-04-06T11:05:54;11.10;99.90
34837;DHT22;21053;50.848;4.652;2023-04-06T11:08:31;11.10;99.90
34837;DHT22;21053;50.848;4.652;2023-04-06T11:11:08;11.30;99.90
34837;DHT22;21053;50.848;4.652;2023-04-06T11:13:59;11.20;99.90
34837;DHT22;21053;50.848;4.652;2023-04-06T11:16:32;11.20;99.90
34837;DHT22;21053;50.848;4.652;2023-04-06T11:19:04;11.20;99.90
34837;DHT22;21053;50.848;4.652;2023-04-06T11:24:23;11.20;99.90
34837;DHT22;21053;50.848;4.652;2023-04-06T11:26:56;11.30;99.90
34837;DHT22;21053;50.848;4.652;2023-04-06T11:29:30;11.40;99.90
34837;DHT22;21053;50.848;4.652;2023-04-06T11:32:02;11.20;99.90
34837;DHT22;21053;50.848;4.652;2023-04-06T11:34:35;11.20;99.90
34837;DHT22;21053;50.848;4.652;2023-04-06T11:37:10;11.20;99.90
34837;DHT22;21053;50.848;4.652;2023-04-06T11:42:27;11.10;99.90
34837;DHT22;21053;50.848;4.652;2023-04-06T11:44:57;11.10;99.90
34837;DHT22;21053;50.848;4.652;2023-04-06T11:47:31;11.00;99.90
34837;DHT22;21053;50.848;4.652;2023-04-06T11:50:08;10.90;99.90
34837;DHT22;21053;50.848;4.652;2023-04-06T11:52:34;11.10;99.90
34837;DHT22;21053;50.848;4.652;2023-04-06T11:55:17;11.00;99.90
34837;DHT22;21053;50.848;4.652;2023-04-06T11:57:43;11.10;99.90
34837;DHT22;21053;50.848;4.652;2023-04-06T12:00:10;11.20;99.90
34837;DHT22;21053;50.848;4.652;2023-04-06T12:02:38;11.10;99.90
34837;DHT22;21053;50.848;4.652;2023-04-06T12:05:05;11.10;99.90
34837;DHT22;21053;50.848;4.652;2023-04-06T12:07:34;11.10;99.90
34837;DHT22;21053;50.848;4.652;2023-04-06T12:11:42;10.90;99.90
34837;DHT22;21053;50.848;4.652;2023-04-06T12:14:08;10.90;99.90
34837;DHT22;21053;50.848;4.652;2023-04-06T12:16:34;10.90;99.90
34837;DHT22;21053;50.848;4.652;2023-04-06T12:19:01;11.00;99.90
34837;DHT22;21053;50.848;4.652;2023-04-06T12:21:28;10.90;99.90
34837;DHT22;21053;50.848;4.652;2023-04-06T12:23:56;10.90;99.90
34837;DHT22;21053;50.848;4.652;2023-04-06T12:26:25;11.00;99.90
34837;DHT22;21053;50.848;4.652;2023-04-06T12:28:52;11.10;99.90
34837;DHT22;21053;50.848;4.652;2023-04-06T12:31:20;11.40;99.90
34837;DHT22;21053;50.848;4.652;2023-04-06T12:33:47;11.70;99.90
34837;DHT22;21053;50.848;4.652;2023-04-06T12:36:15;11.90;99.90
34837;DHT22;21053;50.848;4.652;2023-04-06T12:38:47;12.10;99.90
34837;DHT22;21053;50.848;4.652;2023-04-06T12:41:14;12.00;99.90
34837;DHT22;21053;50.848;4.652;2023-04-06T12:43:43;11.90;99.90
34837;DHT22;21053;50.848;4.652;2023-04-06T12:46:09;11.70;99.90
34837;DHT22;21053;50.848;4.652;2023-04-06T12:48:35;11.50;99.90
34837;DHT22;21053;50.848;4.652;2023-04-06T12:51:03;11.60;99.90
34837;DHT22;21053;50.848;4.652;2023-04-06T12:53:30;11.80;99.90
34837;DHT22;21053;50.848;4.652;2023-04-06T12:55:56;12.00;99.90
34837;DHT22;21053;50.848;4.652;2023-04-06T12:58:23;12.10;99.90
34837;DHT22;21053;50.848;4.652;2023-04-06T13:00:52;12.20;99.90
34837;DHT22;21053;50.848;4.652;2023-04-06T13:03:32;11.90;99.90
34837;DHT22;21053;50.848;4.652;2023-04-06T13:06:01;11.90;99.90
34837;DHT22;21053;50.848;4.652;2023-04-06T13:08:32;11.80;99.90
34837;DHT22;21053;50.848;4.652;2023-04-06T13:11:01;11.70;99.90
34837;DHT22;21053;50.848;4.652;2023-04-06T13:13:29;11.60;99.90
34837;DHT22;21053;50.848;4.652;2023-04-06T13:18:31;11.40;99.90
34837;DHT22;21053;50.848;4.652;2023-04-06T13:20:58;11.40;99.90
34837;DHT22;21053;50.848;4.652;2023-04-06T13:23:25;11.20;99.90
34837;DHT22;21053;50.848;4.652;2023-04-06T13:26:09;11.30;99.90
34837;DHT22;21053;50.848;4.652;2023-04-06T13:28:36;11.10;99.90
34837;DHT22;21053;50.848;4.652;2023-04-06T13:31:03;11.00;99.90
34837;DHT22;21053;50.848;4.652;2023-04-06T13:33:32;10.90;99.90
34837;DHT22;21053;50.848;4.652;2023-04-06T13:35:58;10.80;99.90
34837;DHT22;21053;50.848;4.652;2023-04-06T13:38:26;10.90;99.90
34837;DHT22;21053;50.848;4.652;2023-04-06T13:40:53;10.80;99.90
34837;DHT22;21053;50.848;4.652;2023-04-06T13:43:22;10.70;99.90
34837;DHT22;21053;50.848;4.652;2023-04-06T13:45:55;10.60;99.90
34837;DHT22;21053;50.848;4.652;2023-04-06T13:48:24;10.60;99.90
34837;DHT22;21053;50.848;4.652;2023-04-06T13:50:52;10.70;99.90
34837;DHT22;21053;50.848;4.652;2023-04-06T13:53:18;10.60;99.90
34837;DHT22;21053;50.848;4.652;2023-04-06T13:55:52;10.90;99.90
34837;DHT22;21053;50.848;4.652;2023-04-06T13:58:19;10.90;99.90
34837;DHT22;21053;50.848;4.652;2023-04-06T14:00:45;11.00;99.90
34837;DHT22;21053;50.848;4.652;2023-04-06T14:03:13;11.20;99.90
34837;DHT22;21053;50.848;4.652;2023-04-06T14:05:40;11.10;99.90
34837;DHT22;21053;50.848;4.652;2023-04-06T14:08:06;11.10;99.90
34837;DHT22;21053;50.848;4.652;2023-04-06T14:10:39;11.10;99.90
34837;DHT22;21053;50.848;4.652;2023-04-06T14:13:10;11.10;99.90
34837;DHT22;21053;50.848;4.652;2023-04-06T14:15:35;11.20;99.90
34837;DHT22;21053;50.848;4.652;2023-04-06T14:18:02;11.20;99.90
34837;DHT22;21053;50.848;4.652;2023-04-06T14:20:31;11.20;99.90
34837;DHT22;21053;50.848;4.652;2023-04-06T14:23:00;11.10;99.90
34837;DHT22;21053;50.848;4.652;2023-04-06T14:25:25;11.10;99.90
34837;DHT22;21053;50.848;4.652;2023-04-06T14:27:51;11.10;99.90
34837;DHT22;21053;50.848;4.652;2023-04-06T14:30:18;11.20;99.90
34837;DHT22;21053;50.848;4.652;2023-04-06T14:32:45;11.30;99.90
34837;DHT22;21053;50.848;4.652;2023-04-06T14:35:12;11.20;99.90
34837;DHT22;21053;50.848;4.652;2023-04-06T14:37:38;11.10;99.90
34837;DHT22;21053;50.848;4.652;2023-04-06T14:40:04;11.00;99.90
34837;DHT22;21053;50.848;4.652;2023-04-06T14:42:35;11.00;99.90
34837;DHT22;21053;50.848;4.652;2023-04-06T14:45:03;11.00;99.90
34837;DHT22;21053;50.848;4.652;2023-04-06T14:47:29;11.00;99.90
34837;DHT22;21053;50.848;4.652;2023-04-06T14:49:55;10.90;99.90
34837;DHT22;21053;50.848;4.652;2023-04-06T14:52:21;11.10;99.90
34837;DHT22;21053;50.848;4.652;2023-04-06T14:54:47;11.20;99.90
34837;DHT22;21053;50.848;4.652;2023-04-06T14:57:14;11.20;99.90
34837;DHT22;21053;50.848;4.652;2023-04-06T14:59:40;11.20;99.90
34837;DHT22;21053;50.848;4.652;2023-04-06T15:02:07;11.20;99.90
34837;DHT22;21053;50.848;4.652;2023-04-06T15:04:34;11.10;99.90
34837;DHT22;21053;50.848;4.652;2023-04-06T15:07:00;11.20;99.90
34837;DHT22;21053;50.848;4.652;2023-04-06T15:09:26;11.30;99.90
34837;DHT22;21053;50.848;4.652;2023-04-06T15:11:52;11.10;99.90
34837;DHT22;21053;50.848;4.652;2023-04-06T15:14:17;11.20;99.90
34837;DHT22;21053;50.848;4.652;2023-04-06T15:16:43;11.10;99.90
34837;DHT22;21053;50.848;4.652;2023-04-06T15:19:09;11.30;99.90
34837;DHT22;21053;50.848;4.652;2023-04-06T15:21:37;11.50;99.90
34837;DHT22;21053;50.848;4.652;2023-04-06T15:24:03;11.70;99.90
34837;DHT22;21053;50.848;4.652;2023-04-06T15:26:31;11.80;99.90
34837;DHT22;21053;50.848;4.652;2023-04-06T15:29:03;12.00;99.90
34837;DHT22;21053;50.848;4.652;2023-04-06T15:31:30;11.90;99.90
34837;DHT22;21053;50.848;4.652;2023-04-06T15:33:57;11.90;99.90
34837;DHT22;21053;50.848;4.652;2023-04-06T15:36:31;12.00;99.90
34837;DHT22;21053;50.848;4.652;2023-04-06T15:38:58;12.10;99.90
34837;DHT22;21053;50.848;4.652;2023-04-06T15:41:24;12.20;99.90
34837;DHT22;21053;50.848;4.652;2023-04-06T15:43:52;12.30;99.90
34837;DHT22;21053;50.848;4.652;2023-04-06T15:46:18;12.40;99.90
34837;DHT22;21053;50.848;4.652;2023-04-06T15:48:44;12.30;99.90
34837;DHT22;21053;50.848;4.652;2023-04-06T15:51:10;12.20;99.90
34837;DHT22;21053;50.848;4.652;2023-04-06T15:53:37;12.20;99.90
34837;DHT22;21053;50.848;4.652;2023-04-06T15:56:04;12.20;99.90
34837;DHT22;21053;50.848;4.652;2023-04-06T15:58:32;12.20;99.90
34837;DHT22;21053;50.848;4.652;2023-04-06T16:00:59;12.10;99.90
34837;DHT22;21053;50.848;4.652;2023-04-06T16:03:25;11.80;99.90
34837;DHT22;21053;50.848;4.652;2023-04-06T16:05:54;11.90;99.90
34837;DHT22;21053;50.848;4.652;2023-04-06T16:08:23;12.00;99.90
34837;DHT22;21053;50.848;4.652;2023-04-06T16:10:48;12.00;99.90
34837;DHT22;21053;50.848;4.652;2023-04-06T16:13:17;12.10;99.90